createdAt,value
2019-05-02T00:01:41.299Z,46.42
2019-05-02T00:04:12.437Z,44.42
2019-05-02T00:06:38.042Z,43.25
2019-05-02T00:09:09.276Z,44.13
2019-05-02T00:11:35.885Z,43.00
2019-05-02T00:14:04.839Z,45.60
2019-05-02T00:16:31.312Z,42.20
2019-05-02T00:18:57.676Z,43.58
2019-05-02T00:21:24.261Z,43.70
2019-05-02T00:23:50.806Z,43.15
2019-05-02T00:26:17.281Z,43.50
2019-05-02T00:28:47.952Z,47.30
2019-05-02T00:31:12.844Z,44.77
2019-05-02T00:33:39.667Z,44.88
2019-05-02T00:36:06.156Z,44.15
2019-05-02T00:38:33.394Z,45.80
2019-05-02T00:41:02.267Z,43.10
2019-05-02T00:43:34.317Z,44.53
2019-05-02T00:45:59.824Z,43.40
2019-05-02T00:48:46.851Z,43.23
2019-05-02T00:51:13.321Z,45.03
2019-05-02T00:53:39.903Z,45.30
2019-05-02T00:56:09.045Z,45.35
2019-05-02T00:58:36.529Z,42.62
2019-05-02T01:01:14.676Z,45.60
2019-05-02T01:03:47.201Z,41.73
2019-05-02T01:06:14.550Z,46.73
2019-05-02T01:08:39.703Z,43.30
2019-05-02T01:11:06.152Z,42.67
2019-05-02T01:13:33.031Z,43.95
2019-05-02T01:15:59.489Z,44.03
2019-05-02T01:18:26.058Z,42.98
2019-05-02T01:20:52.711Z,40.43
2019-05-02T01:23:23.003Z,44.45
2019-05-02T01:25:52.662Z,43.50
2019-05-02T01:28:24.017Z,47.08
2019-05-02T01:31:01.518Z,43.08
2019-05-02T01:33:36.845Z,42.73
2019-05-02T01:36:08.168Z,41.60
2019-05-02T01:38:36.656Z,45.45
2019-05-02T01:41:03.303Z,43.45
2019-05-02T01:43:30.684Z,44.93
2019-05-02T01:45:57.234Z,44.55
2019-05-02T01:48:24.991Z,42.25
2019-05-02T01:50:51.551Z,44.20
2019-05-02T01:53:18.188Z,44.65
2019-05-02T01:55:44.760Z,45.10
2019-05-02T01:58:14.955Z,44.38
2019-05-02T02:00:40.922Z,46.15
2019-05-02T02:03:09.172Z,47.98
2019-05-02T02:05:36.676Z,47.90
2019-05-02T02:08:04.234Z,47.45
2019-05-02T02:10:30.909Z,49.08
2019-05-02T02:13:04.612Z,45.67
2019-05-02T02:15:28.969Z,45.38
2019-05-02T02:17:55.190Z,44.03
2019-05-02T02:20:26.404Z,47.85
2019-05-02T02:23:10.270Z,45.88
2019-05-02T02:25:40.456Z,42.15
2019-05-02T02:28:07.099Z,46.53
2019-05-02T02:30:33.488Z,44.15
2019-05-02T02:33:06.976Z,44.50
2019-05-02T02:35:28.394Z,45.92
2019-05-02T02:37:55.699Z,45.38
2019-05-02T02:40:32.736Z,44.05
2019-05-02T02:42:50.893Z,45.45
2019-05-02T02:45:26.178Z,46.40
2019-05-02T02:47:53.065Z,45.23
2019-05-02T02:50:20.897Z,43.58
2019-05-02T02:52:47.348Z,45.30
2019-05-02T02:55:16.066Z,41.23
2019-05-02T02:57:42.307Z,43.20
2019-05-02T03:00:11.150Z,40.63
2019-05-02T03:02:47.500Z,44.15
2019-05-02T03:05:06.017Z,41.28
2019-05-02T03:07:32.574Z,41.15
2019-05-02T03:10:05.422Z,40.43
2019-05-02T03:12:36.201Z,42.40
2019-05-02T03:15:00.512Z,41.73
2019-05-02T03:17:28.764Z,41.40
2019-05-02T03:20:01.115Z,41.18
2019-05-02T03:22:23.989Z,39.75
2019-05-02T03:24:50.661Z,40.38
2019-05-02T03:27:17.312Z,40.12
2019-05-02T03:29:44.488Z,41.05
2019-05-02T03:32:16.164Z,41.40
2019-05-02T03:34:52.950Z,40.73
2019-05-02T03:37:11.344Z,39.78
2019-05-02T03:39:37.618Z,40.98
2019-05-02T03:42:05.067Z,43.30
2019-05-02T03:44:32.283Z,43.17
2019-05-02T03:47:02.049Z,43.65
2019-05-02T03:49:27.647Z,43.08
2019-05-02T03:51:55.893Z,42.10
2019-05-02T03:54:22.476Z,41.37
2019-05-02T03:56:51.160Z,44.55
2019-05-02T03:59:17.206Z,41.70
2019-05-02T04:01:43.983Z,45.55
2019-05-02T04:04:14.215Z,43.48
2019-05-02T04:06:40.667Z,47.35
2019-05-02T04:09:07.316Z,44.15
2019-05-02T04:11:39.178Z,46.18
2019-05-02T04:14:15.153Z,44.27
2019-05-02T04:16:32.044Z,45.43
2019-05-02T04:19:01.194Z,45.10
2019-05-02T04:21:28.164Z,44.93
2019-05-02T04:24:07.658Z,47.53
2019-05-02T04:26:23.913Z,44.38
2019-05-02T04:28:51.562Z,43.98
2019-05-02T04:31:24.904Z,44.67
2019-05-02T04:33:47.015Z,43.55
2019-05-02T04:36:17.545Z,45.30
2019-05-02T04:38:47.966Z,48.58
2019-05-02T04:41:11.444Z,46.90
2019-05-02T04:43:40.537Z,43.13
2019-05-02T04:46:12.100Z,43.33
2019-05-02T04:48:40.363Z,44.50
2019-05-02T04:51:10.075Z,44.83
2019-05-02T04:53:36.955Z,46.37
2019-05-02T04:56:06.644Z,45.75
2019-05-02T04:58:33.400Z,44.80
2019-05-02T05:01:01.530Z,44.33
2019-05-02T05:03:28.299Z,45.15
2019-05-02T05:05:59.408Z,45.38
2019-05-02T05:08:26.505Z,44.75
2019-05-02T05:10:50.884Z,46.90
2019-05-02T05:13:22.806Z,46.73
2019-05-02T05:15:49.456Z,49.48
2019-05-02T05:18:14.653Z,46.33
2019-05-02T05:20:45.945Z,44.80
2019-05-02T05:23:15.661Z,46.53
2019-05-02T05:25:44.344Z,46.50
2019-05-02T05:28:10.894Z,49.70
2019-05-02T05:30:44.936Z,46.88
2019-05-02T05:33:09.920Z,47.88
2019-05-02T05:35:34.445Z,47.93
2019-05-02T05:38:00.929Z,46.02
2019-05-02T05:40:30.932Z,47.70
2019-05-02T05:42:57.369Z,49.90
2019-05-02T05:45:24.293Z,45.43
2019-05-02T05:47:52.451Z,44.75
2019-05-02T05:50:19.215Z,47.33
2019-05-02T05:52:47.274Z,44.27
2019-05-02T05:55:20.495Z,45.95
2019-05-02T05:57:42.334Z,48.15
2019-05-02T06:00:15.961Z,44.58
2019-05-02T06:02:53.297Z,45.28
2019-05-02T06:05:07.979Z,48.95
2019-05-02T06:07:41.891Z,45.35
2019-05-02T06:10:08.003Z,46.70
2019-05-02T06:12:35.503Z,46.35
2019-05-02T06:15:02.290Z,46.10
2019-05-02T06:17:30.475Z,50.03
2019-05-02T06:19:57.226Z,48.83
2019-05-02T06:22:25.608Z,49.88
2019-05-02T06:24:52.217Z,47.78
2019-05-02T06:27:20.785Z,46.92
2019-05-02T06:29:51.074Z,48.13
2019-05-02T06:32:19.183Z,49.55
2019-05-02T06:34:46.539Z,45.65
2019-05-02T06:37:13.443Z,46.25
2019-05-02T06:39:41.205Z,45.12
2019-05-02T06:42:07.879Z,46.63
2019-05-02T06:44:34.301Z,45.98
2019-05-02T06:47:04.340Z,46.35
2019-05-02T06:49:29.298Z,47.15
2019-05-02T06:51:56.375Z,45.03
2019-05-02T06:54:24.595Z,44.83
2019-05-02T06:56:51.519Z,45.12
2019-05-02T06:59:20.144Z,46.80
2019-05-02T07:01:46.474Z,45.40
2019-05-02T07:04:33.085Z,44.33
2019-05-02T07:07:00.058Z,44.03
2019-05-02T07:09:40.029Z,42.93
2019-05-02T07:11:57.819Z,40.15
2019-05-02T07:14:25.576Z,40.23
2019-05-02T07:17:11.066Z,36.55
2019-05-02T07:19:39.549Z,38.92
2019-05-02T07:22:06.345Z,38.02
2019-05-02T07:24:32.904Z,39.90
2019-05-02T07:27:01.942Z,42.27
2019-05-02T07:29:27.994Z,40.38
2019-05-02T07:31:54.949Z,37.78
2019-05-02T07:34:21.419Z,37.15
2019-05-02T07:36:47.987Z,38.90
2019-05-02T07:39:15.551Z,42.15
2019-05-02T07:41:42.303Z,40.58
2019-05-02T07:44:08.790Z,36.73
2019-05-02T07:46:35.636Z,47.38
2019-05-02T07:49:02.817Z,39.58
2019-05-02T07:51:29.404Z,40.67
2019-05-02T07:53:56.070Z,39.25
2019-05-02T07:56:22.965Z,43.13
2019-05-02T07:58:50.120Z,40.92
2019-05-02T08:01:16.719Z,40.67
2019-05-02T08:03:43.263Z,41.08
2019-05-02T08:06:09.952Z,41.35
2019-05-02T08:08:36.753Z,42.33
2019-05-02T08:11:03.752Z,40.45
2019-05-02T08:13:31.563Z,40.47
2019-05-02T08:15:58.221Z,36.68
2019-05-02T08:18:29.785Z,38.73
2019-05-02T08:20:56.041Z,39.13
2019-05-02T08:23:25.774Z,38.10
2019-05-02T08:25:49.959Z,37.03
2019-05-02T08:28:24.529Z,41.80
2019-05-02T08:31:13.666Z,39.60
2019-05-02T08:33:39.226Z,35.97
2019-05-02T08:36:05.809Z,34.83
2019-05-02T08:38:32.466Z,37.57
2019-05-02T08:40:59.037Z,36.93
2019-05-02T08:43:25.587Z,37.53
2019-05-02T08:45:52.287Z,35.13
2019-05-02T08:48:18.644Z,33.80
2019-05-02T08:50:45.266Z,35.60
2019-05-02T08:53:14.246Z,34.80
2019-05-02T08:55:41.410Z,35.90
2019-05-02T08:58:14.543Z,36.90
2019-05-02T09:00:39.291Z,36.30
2019-05-02T09:03:06.025Z,39.90
2019-05-02T09:05:36.875Z,34.43
2019-05-02T09:08:01.056Z,32.73
2019-05-02T09:10:27.740Z,32.80
2019-05-02T09:12:54.428Z,30.90
2019-05-02T09:15:22.356Z,32.27
2019-05-02T09:17:54.917Z,33.30
2019-05-02T09:20:20.905Z,30.60
2019-05-02T09:22:46.626Z,32.97
2019-05-02T09:25:14.874Z,29.70
2019-05-02T09:27:42.110Z,30.70
2019-05-02T09:30:11.892Z,32.17
2019-05-02T09:32:38.482Z,33.00
2019-05-02T09:35:06.347Z,32.30
2019-05-02T09:37:33.132Z,33.07
2019-05-02T09:40:02.058Z,33.30
2019-05-02T09:42:27.955Z,32.00
2019-05-02T09:44:57.011Z,34.90
2019-05-02T09:47:27.508Z,33.43
2019-05-02T09:50:07.173Z,33.70
2019-05-02T09:52:39.660Z,34.20
2019-05-02T09:55:05.028Z,33.87
2019-05-02T09:57:32.093Z,33.90
2019-05-02T09:59:58.836Z,35.80
2019-05-02T10:02:25.591Z,32.87
2019-05-02T10:04:52.480Z,33.47
2019-05-02T10:07:19.011Z,31.60
2019-05-02T10:09:45.634Z,33.87
2019-05-02T10:12:12.375Z,31.60
2019-05-02T10:14:39.069Z,32.87
2019-05-02T10:17:07.339Z,35.60
2019-05-02T10:19:34.121Z,32.30
2019-05-02T10:22:01.893Z,33.90
2019-05-02T10:24:28.548Z,31.03
2019-05-02T10:27:03.231Z,28.43
2019-05-02T10:29:28.337Z,32.47
2019-05-02T10:31:52.631Z,33.97
2019-05-02T10:34:19.693Z,27.97
2019-05-02T10:36:51.351Z,31.63
2019-05-02T10:39:15.879Z,32.00
2019-05-02T10:41:43.784Z,30.43
2019-05-02T10:44:10.354Z,28.30
2019-05-02T10:46:41.723Z,29.80
2019-05-02T10:49:12.772Z,30.33
2019-05-02T10:51:43.425Z,27.70
2019-05-02T10:54:07.859Z,31.63
2019-05-02T10:56:34.421Z,28.20
2019-05-02T10:59:02.260Z,28.20
2019-05-02T11:01:32.344Z,27.83
2019-05-02T11:04:07.061Z,28.47
2019-05-02T11:06:37.246Z,31.80
2019-05-02T11:09:03.126Z,28.70
2019-05-02T11:11:32.236Z,26.70
2019-05-02T11:14:05.591Z,27.10
2019-05-02T11:16:33.889Z,26.83
2019-05-02T11:19:08.309Z,30.93
2019-05-02T11:21:34.848Z,29.30
2019-05-02T11:24:02.461Z,26.80
2019-05-02T11:26:29.476Z,27.93
2019-05-02T11:28:55.938Z,28.07
2019-05-02T11:31:22.609Z,28.13
2019-05-02T11:33:52.497Z,24.90
2019-05-02T11:36:18.568Z,25.90
2019-05-02T11:38:48.065Z,24.77
2019-05-02T11:41:13.507Z,27.37
2019-05-02T11:43:42.411Z,28.83
2019-05-02T11:46:08.257Z,27.30
2019-05-02T11:48:34.804Z,27.37
2019-05-02T11:51:02.717Z,29.43
2019-05-02T11:53:29.722Z,32.40
2019-05-02T11:55:58.364Z,28.87
2019-05-02T11:58:24.489Z,27.87
2019-05-02T12:00:52.251Z,26.80
2019-05-02T12:03:21.964Z,23.17
2019-05-02T12:05:48.879Z,25.93
2019-05-02T12:08:15.824Z,24.30
2019-05-02T12:10:42.546Z,25.70
2019-05-02T12:13:13.839Z,21.97
2019-05-02T12:15:37.676Z,22.30
2019-05-02T12:18:04.344Z,21.70
2019-05-02T12:20:33.942Z,22.20
2019-05-02T12:22:59.295Z,21.33
2019-05-02T12:25:25.740Z,21.50
2019-05-02T12:27:52.808Z,20.90
2019-05-02T12:30:19.663Z,19.97
2019-05-02T12:32:46.250Z,19.33
2019-05-02T12:35:12.993Z,21.70
2019-05-02T12:37:39.572Z,21.20
2019-05-02T12:40:26.083Z,22.77
2019-05-02T12:42:52.613Z,18.93
2019-05-02T12:45:21.827Z,21.03
2019-05-02T12:47:47.968Z,21.30
2019-05-02T12:50:14.846Z,22.03
2019-05-02T12:52:42.884Z,19.40
2019-05-02T12:55:12.612Z,19.70
2019-05-02T12:57:38.893Z,21.40
2019-05-02T13:00:07.079Z,22.00
2019-05-02T13:02:35.433Z,19.17
2019-05-02T13:05:02.912Z,19.17
2019-05-02T13:07:31.642Z,16.17
2019-05-02T13:09:57.779Z,17.27
2019-05-02T13:12:26.257Z,17.47
2019-05-02T13:14:53.013Z,17.33
2019-05-02T13:17:19.489Z,16.53
2019-05-02T13:19:55.738Z,17.47
2019-05-02T13:22:19.177Z,16.67
2019-05-02T13:24:52.362Z,17.67
2019-05-02T13:27:43.356Z,17.70
2019-05-02T13:30:08.951Z,18.03
2019-05-02T13:32:37.404Z,18.50
2019-05-02T13:35:13.777Z,17.67
2019-05-02T13:37:42.321Z,16.47
2019-05-02T13:40:16.999Z,15.87
2019-05-02T13:42:42.922Z,15.60
2019-05-02T13:45:28.216Z,15.53
2019-05-02T13:47:54.882Z,15.63
2019-05-02T13:50:22.333Z,14.93
2019-05-02T13:52:52.903Z,15.80
2019-05-02T13:55:19.400Z,15.30
2019-05-02T13:57:46.997Z,12.87
2019-05-02T14:00:16.437Z,16.17
2019-05-02T14:02:43.311Z,14.20
2019-05-02T14:05:12.784Z,16.80
2019-05-02T14:07:42.927Z,16.83
2019-05-02T14:10:14.835Z,15.27
2019-05-02T14:12:43.217Z,16.03
2019-05-02T14:15:11.751Z,17.80
2019-05-02T14:17:38.462Z,17.67
2019-05-02T14:20:10.389Z,15.40
2019-05-02T14:22:34.136Z,14.30
2019-05-02T14:25:01.870Z,17.37
2019-05-02T14:27:28.590Z,16.73
2019-05-02T14:29:55.257Z,15.50
2019-05-02T14:32:26.283Z,15.70
2019-05-02T14:34:58.197Z,19.93
2019-05-02T14:37:24.764Z,21.37
2019-05-02T14:39:53.316Z,20.10
2019-05-02T14:42:22.184Z,20.20
2019-05-02T14:45:07.243Z,21.23
2019-05-02T14:47:19.469Z,23.80
2019-05-02T14:49:45.116Z,26.63
2019-05-02T14:52:12.677Z,23.60
2019-05-02T14:54:43.749Z,24.77
2019-05-02T14:59:59.349Z,26.90
2019-05-02T15:02:44.931Z,26.80
2019-05-02T15:05:12.760Z,24.70
2019-05-02T15:07:39.388Z,26.67
2019-05-02T15:10:06.709Z,25.90
2019-05-02T15:12:33.457Z,27.50
2019-05-02T15:14:59.939Z,26.33
2019-05-02T15:17:28.076Z,26.77
2019-05-02T15:19:54.689Z,27.07
2019-05-02T15:22:22.813Z,26.33
2019-05-02T15:24:49.700Z,25.17
2019-05-02T15:27:17.803Z,24.53
2019-05-02T15:29:44.435Z,26.07
2019-05-02T15:32:30.091Z,26.57
2019-05-02T15:35:17.718Z,25.10
2019-05-02T15:37:41.935Z,26.23
2019-05-02T15:42:42.136Z,28.40
2019-05-02T15:45:08.894Z,27.97
2019-05-02T15:47:37.120Z,31.27
2019-05-02T15:50:04.587Z,29.43
2019-05-02T15:52:35.868Z,33.57
2019-05-02T15:55:05.049Z,32.73
2019-05-02T15:57:37.997Z,34.63
2019-05-02T16:00:01.536Z,34.53
2019-05-02T16:02:31.989Z,36.03
2019-05-02T16:05:02.370Z,42.00
2019-05-02T16:07:27.436Z,49.27
2019-05-02T16:09:57.246Z,49.60
2019-05-02T16:12:27.197Z,40.33
2019-05-02T16:14:52.682Z,38.70
2019-05-02T16:17:22.228Z,36.67
2019-05-02T16:19:52.510Z,36.28
2019-05-02T16:22:22.473Z,37.27
2019-05-02T16:24:51.057Z,39.20
2019-05-02T16:27:23.724Z,39.73
2019-05-02T16:29:46.128Z,42.80
2019-05-02T16:32:14.621Z,46.50
2019-05-02T16:34:58.439Z,47.33
2019-05-02T16:37:25.137Z,50.00
2019-05-02T16:39:51.712Z,55.80
2019-05-02T16:42:18.349Z,53.13
2019-05-02T16:44:44.704Z,59.00
2019-05-02T16:47:13.646Z,49.95
2019-05-02T16:49:39.650Z,44.80
2019-05-02T16:52:08.542Z,37.38
2019-05-02T16:54:41.555Z,35.20
2019-05-02T16:57:03.134Z,31.83
2019-05-02T16:59:29.616Z,33.25
2019-05-02T17:01:59.580Z,34.25
2019-05-02T17:04:24.766Z,30.13
2019-05-02T17:06:56.879Z,32.30
2019-05-02T17:09:42.428Z,30.55
2019-05-02T17:12:11.841Z,33.55
2019-05-02T17:14:37.501Z,34.27
2019-05-02T17:17:04.278Z,31.10
2019-05-02T17:19:34.690Z,32.33
2019-05-02T17:21:59.112Z,31.82
2019-05-02T17:24:26.285Z,37.50
2019-05-02T17:26:52.851Z,25.68
2019-05-02T17:29:21.392Z,24.75
2019-05-02T17:31:50.083Z,24.82
2019-05-02T17:34:16.087Z,24.95
2019-05-02T17:36:44.492Z,23.63
2019-05-02T17:39:12.444Z,23.12
2019-05-02T17:41:42.346Z,24.85
2019-05-02T17:44:07.844Z,23.35
2019-05-02T17:46:36.589Z,22.27
2019-05-02T17:49:03.171Z,24.45
2019-05-02T17:51:33.914Z,22.20
2019-05-02T17:54:00.637Z,20.90
2019-05-02T17:56:27.584Z,27.07
2019-05-02T17:58:58.181Z,25.12
2019-05-02T18:01:33.338Z,20.92
2019-05-02T18:03:55.735Z,22.62
2019-05-02T18:06:32.427Z,21.12
2019-05-02T18:08:55.027Z,20.68
2019-05-02T18:11:19.261Z,20.52
2019-05-02T18:13:45.856Z,20.40
2019-05-02T18:16:15.646Z,20.40
2019-05-02T18:18:44.568Z,21.17
2019-05-02T18:21:08.957Z,20.40
2019-05-02T18:23:35.501Z,20.85
2019-05-02T18:26:05.178Z,25.05
2019-05-02T18:28:30.275Z,23.45
2019-05-02T18:30:57.303Z,22.87
2019-05-02T18:33:25.109Z,24.17
2019-05-02T18:35:52.652Z,21.80
2019-05-02T18:38:20.902Z,24.57
2019-05-02T18:40:47.830Z,25.25
2019-05-02T18:43:14.602Z,27.17
2019-05-02T18:45:42.562Z,25.97
2019-05-02T18:48:09.340Z,25.88
2019-05-02T18:50:42.545Z,25.92
2019-05-02T18:53:07.795Z,26.27
2019-05-02T18:55:34.960Z,24.07
2019-05-02T18:58:05.225Z,26.52
2019-05-02T19:00:37.616Z,27.10
2019-05-02T19:02:59.217Z,26.55
2019-05-02T19:05:26.553Z,27.45
2019-05-02T19:07:56.424Z,27.00
2019-05-02T19:10:21.665Z,37.17
2019-05-02T19:12:48.240Z,33.65
2019-05-02T19:15:15.652Z,26.55
2019-05-02T19:17:43.275Z,29.52
2019-05-02T19:20:28.319Z,30.37
2019-05-02T19:22:56.910Z,28.80
2019-05-02T19:25:23.382Z,28.40
2019-05-02T19:27:52.218Z,30.30
2019-05-02T19:30:26.316Z,28.27
2019-05-02T19:32:51.835Z,25.77
2019-05-02T19:35:18.389Z,28.50
2019-05-02T19:37:47.777Z,28.70
2019-05-02T19:40:20.076Z,27.27
2019-05-02T19:42:45.696Z,26.90
2019-05-02T19:45:16.746Z,29.00
2019-05-02T19:47:42.116Z,25.65
2019-05-02T19:50:15.663Z,26.50
2019-05-02T19:52:42.934Z,26.97
2019-05-02T19:55:19.470Z,26.75
2019-05-02T19:57:41.698Z,27.42
2019-05-02T20:00:08.138Z,26.48
2019-05-02T20:02:37.462Z,28.15
2019-05-02T20:05:04.501Z,26.37
2019-05-02T20:07:32.211Z,28.15
2019-05-02T20:09:59.139Z,42.13
2019-05-02T20:12:25.602Z,28.92
2019-05-02T20:14:52.187Z,38.55
2019-05-02T20:17:20.221Z,32.58
2019-05-02T20:19:49.037Z,31.00
2019-05-02T20:22:15.914Z,33.65
2019-05-02T20:24:55.429Z,30.90
2019-05-02T20:27:18.568Z,30.27
2019-05-02T20:29:45.138Z,28.70
2019-05-02T20:32:12.643Z,31.27
2019-05-02T20:34:39.184Z,29.52
2019-05-02T20:37:05.771Z,27.22
2019-05-02T20:39:32.239Z,30.00
2019-05-02T20:41:58.625Z,26.12
2019-05-02T20:44:25.084Z,25.70
2019-05-02T20:46:51.731Z,23.00
2019-05-02T20:49:18.208Z,26.45
2019-05-02T20:51:44.699Z,40.60
2019-05-02T20:54:12.543Z,36.25
2019-05-02T20:56:39.218Z,27.45
2019-05-02T20:59:05.670Z,26.40
2019-05-02T21:01:32.296Z,26.05
2019-05-02T21:03:58.824Z,24.52
2019-05-02T21:06:38.627Z,27.15
2019-05-02T21:09:02.198Z,25.52
2019-05-02T21:11:29.047Z,25.20
2019-05-02T21:13:55.800Z,26.95
2019-05-02T21:16:22.270Z,23.90
2019-05-02T21:18:48.628Z,22.82
2019-05-02T21:21:16.005Z,23.05
2019-05-02T21:23:47.295Z,18.73
2019-05-02T21:26:10.961Z,16.35
2019-05-02T21:28:37.523Z,12.82
2019-05-02T21:31:04.109Z,12.50
2019-05-02T21:33:38.386Z,11.88
2019-05-02T21:36:05.749Z,12.28
2019-05-02T21:38:32.426Z,13.00
2019-05-02T21:40:59.086Z,11.03
2019-05-02T21:43:25.648Z,11.18
2019-05-02T21:45:52.209Z,11.83
2019-05-02T21:48:19.186Z,15.10
2019-05-02T21:51:05.903Z,12.07
2019-05-02T21:53:36.900Z,12.20
2019-05-02T21:56:08.243Z,11.33
2019-05-02T21:58:34.714Z,13.25
2019-05-02T22:01:05.991Z,13.28
2019-05-02T22:03:32.534Z,12.90
2019-05-02T22:06:03.858Z,11.73
2019-05-02T22:08:32.183Z,11.35
2019-05-02T22:10:58.780Z,11.48
2019-05-02T22:13:25.433Z,13.38
2019-05-02T22:15:52.013Z,12.15
2019-05-02T22:18:18.446Z,13.70
2019-05-02T22:20:44.816Z,12.03
2019-05-02T22:23:11.860Z,11.30
2019-05-02T22:25:38.495Z,11.12
2019-05-02T22:28:04.993Z,10.85
2019-05-02T22:30:32.299Z,12.23
2019-05-02T22:32:58.987Z,11.08
2019-05-02T22:35:25.476Z,10.23
2019-05-02T22:37:53.825Z,10.95
2019-05-02T22:40:21.823Z,10.28
2019-05-02T22:42:48.311Z,10.82
2019-05-02T22:45:14.771Z,10.28
2019-05-02T22:47:42.614Z,11.75
2019-05-02T22:50:09.933Z,11.25
2019-05-02T22:52:36.441Z,10.40
2019-05-02T22:55:08.236Z,9.93
2019-05-02T22:57:34.687Z,10.23
2019-05-02T23:00:01.922Z,9.40
2019-05-02T23:02:28.723Z,10.75
2019-05-02T23:04:55.182Z,9.83
2019-05-02T23:07:22.252Z,10.65
2019-05-02T23:09:49.035Z,9.30
2019-05-02T23:12:15.512Z,9.65
2019-05-02T23:14:42.156Z,9.88
2019-05-02T23:17:08.712Z,10.08
2019-05-02T23:19:35.280Z,9.23
2019-05-02T23:22:02.232Z,10.60
2019-05-02T23:24:39.038Z,10.35
2019-05-02T23:27:22.429Z,10.93
2019-05-02T23:29:49.091Z,10.10
2019-05-02T23:32:15.833Z,11.53
2019-05-02T23:34:42.759Z,10.38
2019-05-02T23:37:09.499Z,11.33
2019-05-02T23:39:35.994Z,10.95
2019-05-02T23:42:02.624Z,11.10
2019-05-02T23:44:29.004Z,10.23
2019-05-02T23:46:55.458Z,9.88
2019-05-02T23:49:22.123Z,10.98
2019-05-02T23:51:48.882Z,9.55
2019-05-02T23:54:15.362Z,10.80
2019-05-02T23:56:42.980Z,9.60
2019-05-02T23:59:11.863Z,9.20
